| time (UTC) | temp F | wind direction | speed MPH | gust MPH | rain 1hr in | rain 24hr in | rain mn in | humidity % | barometer mb |
| 20260902090847 | 66 | 177 | 7.0 | 14.0 | 0.00 | 0.00 | 0.00 | 87 | 1020.2 |
| 20260902084847 | 65 | 187 | 5.0 | 10.0 | 0.00 | 0.00 | 0.00 | 88 | 1020.1 |
| 20260902083848 | 65 | 197 | 4.0 | 8.0 | 0.00 | 0.00 | 0.00 | 89 | 1020.2 |
| 20260902080849 | 63 | 183 | 6.0 | 9.0 | 0.00 | 0.00 | 0.00 | 90 | 1019.8 |
| 20260902075847 | 63 | 169 | 6.0 | 10.0 | 0.00 | 0.00 | 0.00 | 89 | 1019.7 |
| 20260902073847 | 62 | 178 | 6.0 | 11.0 | 0.00 | 0.00 | 0.00 | 91 | 1019.7 |
| 20260902072847 | 62 | 187 | 6.0 | 11.0 | 0.00 | 0.00 | 0.00 | 91 | 1019.7 |
| 20260902071847 | 61 | 185 | 6.0 | 10.0 | 0.00 | 0.00 | 0.00 | 91 | 1019.7 |
| 20260902070847 | 60 | 183 | 6.0 | 10.0 | 0.00 | 0.00 | 0.00 | 91 | 1019.7 |
| 20260902065848 | 60 | 177 | 7.0 | 10.0 | 0.00 | 0.00 | 0.00 | 92 | 1019.7 |
| 20260902064848 | 60 | 183 | 6.0 | 11.0 | 0.00 | 0.00 | 0.00 | 93 | 1019.7 |
| 20260902063847 | 59 | 177 | 5.0 | 8.0 | 0.00 | 0.00 | 0.00 | 94 | 1019.7 |
| 20260902062847 | 58 | 174 | 5.0 | 8.0 | 0.00 | 0.00 | 0.00 | 94 | 1019.7 |
| 20260902061847 | 58 | 171 | 4.0 | 7.0 | 0.00 | 0.00 | 0.00 | 95 | 1019.7 |
| 20260902055847 | 56 | 174 | 4.0 | 7.0 | 0.00 | 0.00 | 0.00 | 96 | 1019.4 |
| 20260902054847 | 56 | 173 | 4.0 | 6.0 | 0.00 | 0.00 | 0.00 | 96 | 1019.4 |
| 20260902053848 | 56 | 177 | 3.0 | 5.0 | 0.00 | 0.00 | 0.00 | 96 | 1019.4 |
| 20260902052847 | 56 | 176 | 3.0 | 5.0 | 0.00 | 0.00 | 0.00 | 96 | 1019.2 |
| 20260902050847 | 56 | 169 | 4.0 | 6.0 | 0.00 | 0.00 | 0.00 | 96 | 1019.3 |
| 20260902045847 | 56 | 169 | 3.0 | 6.0 | 0.00 | 0.00 | 0.00 | 96 | 1019.3 |
| 20260902044848 | 55 | 166 | 3.0 | 5.0 | 0.00 | 0.00 | 0.00 | 96 | 1019.3 |
| 20260902043848 | 55 | 167 | 2.0 | 3.0 | 0.00 | 0.00 | 0.00 | 96 | 1019.2 |
| 20260902042849 | 55 | 167 | 2.0 | 3.0 | 0.00 | 0.00 | 0.00 | 96 | 1019.2 |
| 20260902041848 | 55 | 167 | 2.0 | 4.0 | 0.00 | 0.00 | 0.00 | 96 | 1019.2 |
| 20260902040847 | 55 | 166 | 1.0 | 3.0 | 0.00 | 0.00 | 0.00 | 96 | 1019.3 |
| 20260902035847 | 55 | 166 | 1.0 | 2.0 | 0.00 | 0.00 | 0.00 | 96 | 1019.3 |
| 20260902034848 | 56 | 167 | 1.0 | 2.0 | 0.00 | 0.00 | 0.00 | 96 | 1019.3 |
| 20260902033847 | 56 | 167 | 2.0 | 3.0 | 0.00 | 0.00 | 0.00 | 96 | 1019.4 |
| 20260902032847 | 56 | 167 | 2.0 | 3.0 | 0.00 | 0.00 | 0.00 | 96 | 1019.6 |
| 20260902031847 | 56 | 166 | 2.0 | 3.0 | 0.00 | 0.00 | 0.00 | 96 | 1019.6 |
| 20260902030847 | 56 | 166 | 1.0 | 3.0 | 0.00 | 0.00 | 0.00 | 96 | 1019.6 |
| 20260902025848 | 56 | 167 | 3.0 | 5.0 | 0.00 | 0.00 | 0.00 | 97 | 1019.6 |
| 20260902024848 | 55 | 194 | 2.0 | 4.0 | 0.00 | 0.00 | 0.00 | 97 | 1019.6 |
| 20260902022848 | 55 | 195 | 0.0 | 2.0 | 0.00 | 0.00 | 0.00 | 97 | 1019.7 |
| 20260902021847 | 55 | 196 | 1.0 | 2.0 | 0.00 | 0.00 | 0.00 | 97 | 1019.7 |
| 20260902020848 | 55 | 196 | 1.0 | 2.0 | 0.00 | 0.00 | 0.00 | 96 | 1019.7 |
| 20260902015848 | 55 | 196 | 1.0 | 2.0 | 0.00 | 0.00 | 0.00 | 96 | 1019.7 |
| 20260902014848 | 55 | 196 | 0.0 | 2.0 | 0.00 | 0.00 | 0.00 | 96 | 1019.7 |
| 20260902013848 | 55 | 196 | 0.0 | 2.0 | 0.00 | 0.00 | 0.00 | 96 | 1019.7 |
| 20260902012848 | 55 | 196 | 0.0 | 1.0 | 0.00 | 0.00 | 0.00 | 96 | 1019.7 |
| 20260902011848 | 55 | 196 | 0.0 | 1.0 | 0.00 | 0.00 | 0.00 | 96 | 1019.7 |
| 20260902010848 | 55 | 196 | 0.0 | 2.0 | 0.00 | 0.00 | 0.00 | 96 | 1019.8 |
| 20260902005848 | 55 | 196 | 1.0 | 2.0 | 0.00 | 0.00 | 0.00 | 96 | 1019.7 |
| 20260902004848 | 56 | 0 | 0.0 | 0.0 | 0.00 | 0.00 | 0.00 | 95 | 1019.7 |
| 20260902003848 | 56 | 0 | 0.0 | 0.0 | 0.00 | 0.00 | 0.00 | 95 | 1019.7 |
| 20260902002849 | 56 | 0 | 0.0 | 0.0 | 0.00 | 0.00 | 0.00 | 95 | 1019.7 |
| 20260902001848 | 56 | 194 | 0.0 | 1.0 | 0.00 | 0.00 | 0.00 | 95 | 1019.7 |
| 20260902000848 | 56 | 195 | 0.0 | 1.0 | 0.00 | 0.00 | 0.00 | 95 | 1019.7 |
| 20260901235849 | 56 | 194 | 1.0 | 2.0 | 0.00 | 0.00 | 0.00 | 95 | 1019.8 |
| 20260901234849 | 57 | 194 | 1.0 | 2.0 | 0.00 | 0.00 | 0.00 | 94 | 1019.8 |
| 20260901233849 | 57 | 194 | 1.0 | 2.0 | 0.00 | 0.00 | 0.00 | 94 | 1020.1 |
| 20260901232849 | 57 | 205 | 1.0 | 3.0 | 0.00 | 0.00 | 0.00 | 94 | 1020.1 |
| 20260901231848 | 57 | 262 | 2.0 | 3.0 | 0.00 | 0.00 | 0.00 | 94 | 1020.1 |
| 20260901230848 | 57 | 264 | 0.0 | 3.0 | 0.00 | 0.00 | 0.00 | 95 | 1020.1 |
| 20260901225849 | 57 | 0 | 0.0 | 0.0 | 0.00 | 0.00 | 0.00 | 95 | 1020.2 |
| 20260901224849 | 57 | 263 | 1.0 | 3.0 | 0.00 | 0.00 | 0.00 | 95 | 1020.2 |
| 20260901223848 | 56 | 263 | 2.0 | 3.0 | 0.00 | 0.00 | 0.00 | 95 | 1020.1 |
| 20260901222849 | 57 | 264 | 1.0 | 2.0 | 0.00 | 0.00 | 0.00 | 95 | 1020.1 |
| 20260901221851 | 56 | 264 | 1.0 | 3.0 | 0.00 | 0.00 | 0.00 | 94 | 1020.1 |
| 20260901220851 | 57 | 264 | 2.0 | 3.0 | 0.00 | 0.00 | 0.00 | 94 | 1020.1 |
| 20260901215855 | 57 | 263 | 1.0 | 2.0 | 0.00 | 0.00 | 0.00 | 94 | 1020.2 |
| 20260901214849 | 57 | 263 | 1.0 | 2.0 | 0.00 | 0.00 | 0.00 | 93 | 1020.2 |
| 20260901213849 | 58 | 264 | 1.0 | 3.0 | 0.00 | 0.00 | 0.00 | 93 | 1020.5 |
| 20260901212849 | 58 | 264 | 0.0 | 2.0 | 0.00 | 0.00 | 0.00 | 93 | 1020.5 |
| 20260901210849 | 58 | 264 | 0.0 | 1.0 | 0.00 | 0.00 | 0.00 | 93 | 1020.4 |
| 20260901205849 | 58 | 264 | 1.0 | 2.0 | 0.00 | 0.00 | 0.00 | 93 | 1020.3 |
| 20260901204850 | 58 | 263 | 1.0 | 2.0 | 0.00 | 0.00 | 0.00 | 93 | 1020.3 |
| 20260901203849 | 58 | 263 | 1.0 | 3.0 | 0.00 | 0.00 | 0.00 | 93 | 1020.2 |
| 20260901202851 | 58 | 263 | 2.0 | 3.0 | 0.00 | 0.00 | 0.00 | 92 | 1020.2 |
| 20260901201849 | 59 | 264 | 0.0 | 3.0 | 0.00 | 0.00 | 0.00 | 91 | 1020.2 |
| 20260901200849 | 59 | 0 | 0.0 | 0.0 | 0.00 | 0.00 | 0.00 | 91 | 1020.2 |
| 20260901195849 | 59 | 0 | 0.0 | 0.0 | 0.00 | 0.00 | 0.00 | 89 | 1020.0 |
| 20260901194848 | 60 | 0 | 0.0 | 0.0 | 0.00 | 0.00 | 0.00 | 89 | 1020.0 |
| 20260901193849 | 60 | 0 | 0.0 | 0.0 | 0.00 | 0.00 | 0.00 | 87 | 1019.9 |
| 20260901192850 | 61 | 0 | 0.0 | 0.0 | 0.00 | 0.00 | 0.00 | 87 | 1019.9 |
| 20260901191848 | 62 | 0 | 0.0 | 0.0 | 0.00 | 0.00 | 0.00 | 86 | 1019.9 |
| 20260901190848 | 62 | 0 | 0.0 | 0.0 | 0.00 | 0.00 | 0.00 | 85 | 1019.7 |
| 20260901185849 | 63 | 0 | 0.0 | 0.0 | 0.00 | 0.00 | 0.00 | 83 | 1019.7 |
| 20260901184849 | 64 | 0 | 0.0 | 0.0 | 0.00 | 0.00 | 0.00 | 82 | 1019.7 |
| 20260901183849 | 64 | 263 | 1.0 | 3.0 | 0.00 | 0.00 | 0.00 | 82 | 1019.7 |
| 20260901182849 | 65 | 263 | 1.0 | 2.0 | 0.00 | 0.00 | 0.00 | 80 | 1019.7 |
| 20260901180849 | 66 | 262 | 2.0 | 3.0 | 0.00 | 0.00 | 0.00 | 76 | 1019.8 |
| 20260901175849 | 67 | 262 | 2.0 | 4.0 | 0.00 | 0.00 | 0.00 | 75 | 1019.8 |
| 20260901174849 | 67 | 259 | 3.0 | 6.0 | 0.00 | 0.00 | 0.00 | 75 | 1019.8 |
| 20260901172850 | 68 | 263 | 3.0 | 5.0 | 0.00 | 0.00 | 0.00 | 74 | 1019.7 |
| 20260901171849 | 68 | 257 | 3.0 | 5.0 | 0.00 | 0.00 | 0.00 | 72 | 1019.7 |
| 20260901164850 | 69 | 243 | 3.0 | 7.0 | 0.00 | 0.00 | 0.00 | 70 | 1019.7 |
| 20260901163849 | 70 | 237 | 3.0 | 7.0 | 0.00 | 0.00 | 0.00 | 69 | 1019.7 |
| 20260901162850 | 71 | 223 | 4.0 | 9.0 | 0.00 | 0.00 | 0.00 | 67 | 1019.6 |
| 20260901161849 | 71 | 246 | 3.0 | 5.0 | 0.00 | 0.00 | 0.00 | 70 | 1019.6 |
| 20260901155850 | 71 | 235 | 4.0 | 8.0 | 0.00 | 0.00 | 0.00 | 66 | 1019.5 |
| 20260901153850 | 70 | 268 | 6.0 | 9.0 | 0.00 | 0.00 | 0.00 | 69 | 1019.6 |
| 20260901152850 | 70 | 259 | 5.0 | 9.0 | 0.00 | 0.00 | 0.00 | 69 | 1019.6 |
| 20260901150850 | 70 | 263 | 5.0 | 9.0 | 0.00 | 0.00 | 0.00 | 69 | 1019.6 |
| 20260901145850 | 70 | 262 | 5.0 | 10.0 | 0.00 | 0.00 | 0.00 | 69 | 1019.5 |
| 20260901144849 | 70 | 260 | 5.0 | 12.0 | 0.00 | 0.00 | 0.00 | 72 | 1019.5 |
| 20260901142850 | 70 | 258 | 5.0 | 11.0 | 0.00 | 0.00 | 0.00 | 70 | 1019.6 |
| 20260901141850 | 70 | 255 | 4.0 | 9.0 | 0.00 | 0.00 | 0.00 | 70 | 1019.6 |
| 20260901140851 | 70 | 252 | 6.0 | 11.0 | 0.00 | 0.00 | 0.00 | 68 | 1019.5 |
| 20260901135851 | 71 | 237 | 4.0 | 9.0 | 0.00 | 0.00 | 0.00 | 68 | 1019.6 |
| 20260901134849 | 71 | 221 | 6.0 | 10.0 | 0.00 | 0.00 | 0.00 | 68 | 1019.6 |
| 20260901133850 | 70 | 254 | 5.0 | 10.0 | 0.00 | 0.00 | 0.00 | 71 | 1019.6 |
| 20260901132850 | 70 | 258 | 7.0 | 11.0 | 0.00 | 0.00 | 0.00 | 70 | 1019.7 |
| 20260901131850 | 70 | 233 | 6.0 | 11.0 | 0.00 | 0.00 | 0.00 | 70 | 1019.7 |
| 20260901130850 | 70 | 274 | 8.0 | 12.0 | 0.00 | 0.00 | 0.00 | 71 | 1019.6 |
| 20260901125851 | 70 | 249 | 5.0 | 10.0 | 0.00 | 0.00 | 0.00 | 73 | 1019.6 |
| 20260901124850 | 70 | 243 | 5.0 | 11.0 | 0.00 | 0.00 | 0.00 | 72 | 1019.6 |
| 20260901123850 | 69 | 260 | 7.0 | 13.0 | 0.00 | 0.00 | 0.00 | 72 | 1019.7 |
| 20260901122851 | 70 | 260 | 7.0 | 14.0 | 0.00 | 0.01 | 0.00 | 71 | 1019.7 |
| 20260901121850 | 70 | 240 | 6.0 | 12.0 | 0.00 | 0.01 | 0.00 | 72 | 1019.7 |
| 20260901120850 | 69 | 247 | 6.0 | 13.0 | 0.00 | 0.01 | 0.00 | 72 | 1019.7 |
| 20260901115851 | 68 | 257 | 7.0 | 12.0 | 0.00 | 0.01 | 0.00 | 75 | 1019.7 |
| 20260901113850 | 69 | 213 | 4.0 | 8.0 | 0.00 | 0.01 | 0.00 | 78 | 1019.7 |
| 20260901112850 | 68 | 190 | 4.0 | 7.0 | 0.00 | 0.01 | 0.00 | 81 | 1019.7 |
| 20260901111850 | 67 | 212 | 4.0 | 10.0 | 0.00 | 0.01 | 0.00 | 80 | 1019.7 |
| 20260901110851 | 66 | 228 | 3.0 | 7.0 | 0.00 | 0.01 | 0.00 | 81 | 1019.7 |
| 20260901105850 | 66 | 223 | 4.0 | 9.0 | 0.00 | 0.01 | 0.00 | 80 | 1019.7 |
| 20260901104850 | 66 | 240 | 5.0 | 9.0 | 0.00 | 0.01 | 0.00 | 81 | 1019.7 |
| 20260901103850 | 67 | 245 | 5.0 | 9.0 | 0.00 | 0.01 | 0.00 | 81 | 1019.7 |
| 20260901102851 | 67 | 243 | 4.0 | 12.0 | 0.00 | 0.01 | 0.00 | 83 | 1019.7 |
| 20260901101850 | 67 | 217 | 4.0 | 8.0 | 0.00 | 0.01 | 0.00 | 85 | 1019.7 |
| 20260901100851 | 67 | 225 | 6.0 | 10.0 | 0.00 | 0.02 | 0.00 | 85 | 1019.7 |
| 20260901095851 | 66 | 246 | 5.0 | 9.0 | 0.00 | 0.02 | 0.00 | 88 | 1019.7 |
| 20260901094852 | 66 | 243 | 4.0 | 9.0 | 0.00 | 0.02 | 0.00 | 87 | 1019.7 |
| 20260901093851 | 66 | 233 | 5.0 | 11.0 | 0.00 | 0.02 | 0.00 | 88 | 1019.7 |
| 20260901092851 | 65 | 214 | 4.0 | 7.0 | 0.00 | 0.02 | 0.00 | 93 | 1019.6 |
| 20260901091851 | 64 | 207 | 4.0 | 9.0 | 0.00 | 0.02 | 0.00 | 94 | 1019.6 |